createdAt,value
2022-09-03T00:02:59.438Z,16.50
2022-09-03T00:06:23.935Z,16.50
2022-09-03T00:09:47.335Z,16.50
2022-09-03T00:13:09.631Z,16.60
2022-09-03T00:16:39.476Z,16.60
2022-09-03T00:20:03.568Z,16.60
2022-09-03T00:23:26.828Z,16.70
2022-09-03T00:26:50.694Z,16.70
2022-09-03T00:30:16.934Z,16.70
2022-09-03T00:33:41.397Z,16.70
2022-09-03T00:37:03.118Z,16.70
2022-09-03T00:40:40.220Z,16.70
2022-09-03T00:44:13.295Z,16.60
2022-09-03T00:47:41.036Z,16.60
2022-09-03T00:51:09.978Z,16.50
2022-09-03T00:54:34.323Z,16.50
2022-09-03T00:58:03.000Z,16.50
2022-09-03T01:01:28.197Z,16.50
2022-09-03T01:04:55.716Z,16.50
2022-09-03T01:08:27.873Z,16.50
2022-09-03T01:11:53.150Z,16.50
2022-09-03T01:15:17.033Z,16.50
2022-09-03T01:18:42.454Z,16.50
2022-09-03T01:22:16.190Z,16.50
2022-09-03T01:25:45.083Z,16.50
2022-09-03T01:29:14.275Z,16.50
2022-09-03T01:32:39.584Z,16.50
2022-09-03T01:36:06.490Z,16.50
2022-09-03T01:39:33.057Z,16.40
2022-09-03T01:43:01.805Z,16.40
2022-09-03T01:46:26.068Z,16.40
2022-09-03T01:49:51.140Z,16.40
2022-09-03T01:53:17.107Z,16.40
2022-09-03T01:56:48.367Z,16.40
2022-09-03T02:00:10.988Z,16.30
2022-09-03T02:03:40.910Z,16.30
2022-09-03T02:07:03.689Z,16.30
2022-09-03T02:10:27.385Z,16.30
2022-09-03T02:13:50.568Z,16.30
2022-09-03T02:17:12.316Z,16.20
2022-09-03T02:20:35.286Z,16.20
2022-09-03T02:23:56.901Z,16.20
2022-09-03T02:27:19.655Z,16.20
2022-09-03T02:30:41.399Z,16.10
2022-09-03T02:34:03.156Z,16.10
2022-09-03T02:37:26.328Z,16.20
2022-09-03T02:40:47.945Z,16.20
2022-09-03T02:44:12.559Z,16.10
2022-09-03T02:47:36.415Z,16.10
2022-09-03T02:50:58.007Z,16.00
2022-09-03T02:54:21.329Z,16.00
2022-09-03T02:57:43.198Z,15.90
2022-09-03T03:01:05.307Z,15.90
2022-09-03T03:04:26.940Z,15.80
2022-09-03T03:07:48.523Z,15.70
2022-09-03T03:11:11.487Z,15.60
2022-09-03T03:14:33.063Z,15.60
2022-09-03T03:17:55.991Z,15.60
2022-09-03T03:21:18.185Z,15.70
2022-09-03T03:24:39.783Z,15.70
2022-09-03T03:28:03.127Z,15.70
2022-09-03T03:31:24.785Z,15.60
2022-09-03T03:34:46.357Z,15.50
2022-09-03T03:38:07.936Z,15.50
2022-09-03T03:41:30.161Z,15.40
2022-09-03T03:44:53.466Z,15.40
2022-09-03T03:48:15.082Z,15.30
2022-09-03T03:51:36.730Z,15.30
2022-09-03T03:54:58.339Z,15.30
2022-09-03T03:58:19.936Z,15.40
2022-09-03T04:01:42.946Z,15.40
2022-09-03T04:05:04.961Z,15.50
2022-09-03T04:08:26.745Z,15.60
2022-09-03T04:11:48.338Z,15.60
2022-09-03T04:15:10.463Z,15.70
2022-09-03T04:18:34.374Z,15.70
2022-09-03T04:21:56.129Z,15.70
2022-09-03T04:25:17.732Z,15.70
2022-09-03T04:28:39.459Z,15.70
2022-09-03T04:32:01.060Z,15.70
2022-09-03T04:35:24.849Z,15.60
2022-09-03T04:38:47.118Z,15.60
2022-09-03T04:42:08.707Z,15.60
2022-09-03T04:45:30.521Z,15.60
2022-09-03T04:48:52.838Z,15.70
2022-09-03T04:52:15.752Z,15.60
2022-09-03T04:55:37.938Z,15.70
2022-09-03T04:59:01.355Z,15.70
2022-09-03T05:02:23.235Z,15.70
2022-09-03T05:05:52.556Z,15.70
2022-09-03T05:09:15.518Z,15.70
2022-09-03T05:12:37.097Z,15.80
2022-09-03T05:15:59.326Z,15.90
2022-09-03T05:19:20.937Z,15.90
2022-09-03T05:22:42.491Z,16.00
2022-09-03T05:26:06.250Z,16.00
2022-09-03T05:29:30.515Z,16.00
2022-09-03T05:32:52.083Z,16.10
2022-09-03T05:36:14.690Z,16.20
2022-09-03T05:39:36.297Z,16.30
2022-09-03T05:42:59.212Z,16.30
2022-09-03T05:46:21.056Z,16.30
2022-09-03T05:49:42.653Z,16.40
2022-09-03T05:53:04.234Z,16.40
2022-09-03T05:56:26.966Z,16.60
2022-09-03T05:59:49.984Z,16.80
2022-09-03T06:03:11.882Z,17.00
2022-09-03T06:06:34.411Z,17.00
2022-09-03T06:09:56.027Z,17.10
2022-09-03T06:13:17.596Z,17.00
2022-09-03T06:16:41.439Z,17.10
2022-09-03T06:20:03.427Z,17.20
2022-09-03T06:23:25.380Z,17.20
2022-09-03T06:26:47.045Z,17.40
2022-09-03T06:30:09.187Z,17.40
2022-09-03T06:33:33.999Z,17.50
2022-09-03T06:36:55.658Z,17.60
2022-09-03T06:40:17.425Z,17.60
2022-09-03T06:43:39.701Z,17.60
2022-09-03T06:47:01.297Z,17.70
2022-09-03T06:50:24.265Z,17.70
2022-09-03T06:53:47.171Z,17.80
2022-09-03T06:57:08.794Z,18.00
2022-09-03T07:00:31.713Z,18.20
2022-09-03T07:03:54.542Z,18.30
2022-09-03T07:07:17.459Z,18.40
2022-09-03T07:10:39.054Z,18.50
2022-09-03T07:14:00.650Z,18.60
2022-09-03T07:17:22.238Z,18.70
2022-09-03T07:20:43.837Z,18.60
2022-09-03T07:24:07.173Z,18.60
2022-09-03T07:27:28.890Z,18.40
2022-09-03T07:30:50.706Z,18.40
2022-09-03T07:34:13.532Z,18.40
2022-09-03T07:37:35.138Z,18.50
2022-09-03T07:41:01.610Z,18.50
2022-09-03T07:44:23.208Z,18.60
2022-09-03T07:47:47.675Z,18.60
2022-09-03T07:51:09.650Z,18.70
2022-09-03T07:54:31.238Z,18.90
2022-09-03T07:57:56.530Z,19.30
2022-09-03T08:01:19.341Z,19.50
2022-09-03T08:04:40.969Z,19.70
2022-09-03T08:08:02.795Z,20.30
2022-09-03T08:11:27.195Z,20.50
2022-09-03T08:14:50.130Z,20.80
2022-09-03T08:18:11.707Z,20.80
2022-09-03T08:21:33.452Z,21.00
2022-09-03T08:24:55.061Z,21.20
2022-09-03T08:28:16.623Z,21.40
2022-09-03T08:31:39.636Z,21.40
2022-09-03T08:35:01.234Z,22.80
2022-09-03T08:38:22.873Z,25.00
2022-09-03T08:42:00.595Z,26.80
2022-09-03T08:45:23.043Z,26.60
2022-09-03T08:48:46.160Z,26.10
2022-09-03T08:52:10.179Z,25.30
2022-09-03T08:55:34.110Z,24.70
2022-09-03T08:58:55.831Z,25.00
2022-09-03T09:02:21.132Z,25.10
2022-09-03T09:05:49.394Z,24.50
2022-09-03T09:09:17.623Z,23.80
2022-09-03T09:12:46.518Z,23.40
2022-09-03T09:16:12.423Z,23.10
2022-09-03T09:19:41.726Z,22.80
2022-09-03T09:23:05.744Z,22.60
2022-09-03T09:26:28.518Z,22.50
2022-09-03T09:29:51.826Z,22.70
2022-09-03T09:33:14.075Z,22.90
2022-09-03T09:36:37.523Z,23.10
2022-09-03T09:40:00.781Z,23.30
2022-09-03T09:43:22.448Z,22.90
2022-09-03T09:46:44.060Z,22.90
2022-09-03T09:50:15.213Z,23.50
2022-09-03T09:53:47.009Z,24.40
2022-09-03T09:57:14.875Z,25.80
2022-09-03T10:00:36.552Z,26.10
2022-09-03T10:03:59.003Z,26.80
2022-09-03T10:07:23.350Z,27.00
2022-09-03T10:10:46.806Z,26.50
2022-09-03T10:14:13.210Z,26.30
2022-09-03T10:17:43.359Z,26.10
2022-09-03T10:21:06.859Z,26.20
2022-09-03T10:24:38.137Z,26.30
2022-09-03T10:28:00.246Z,26.30
2022-09-03T10:31:30.350Z,26.30
2022-09-03T10:34:54.824Z,25.50
2022-09-03T10:38:20.649Z,25.70
2022-09-03T10:41:49.258Z,25.90
2022-09-03T10:45:17.466Z,25.70
2022-09-03T10:48:47.755Z,25.60
2022-09-03T10:52:12.140Z,25.60
2022-09-03T10:55:40.172Z,25.30
2022-09-03T10:59:07.605Z,25.10
2022-09-03T11:02:38.688Z,25.10
2022-09-03T11:06:04.849Z,25.10
2022-09-03T11:09:29.987Z,24.90
2022-09-03T11:12:55.578Z,24.70
2022-09-03T11:16:18.746Z,24.50
2022-09-03T11:19:45.795Z,24.50
2022-09-03T11:23:10.052Z,24.50
2022-09-03T11:26:31.937Z,24.30
2022-09-03T11:29:58.901Z,24.10
2022-09-03T11:33:21.988Z,23.80
2022-09-03T11:36:47.807Z,23.40
2022-09-03T11:40:13.615Z,23.00
2022-09-03T11:43:35.529Z,22.90
2022-09-03T11:46:58.035Z,22.70
2022-09-03T11:50:21.555Z,22.40
2022-09-03T11:53:53.221Z,22.20
2022-09-03T11:57:22.864Z,22.00
2022-09-03T12:00:44.468Z,21.80
2022-09-03T12:04:07.016Z,21.70
2022-09-03T12:07:35.323Z,21.50
2022-09-03T12:10:59.483Z,21.40
2022-09-03T12:14:27.628Z,20.90
2022-09-03T12:17:52.135Z,20.10
2022-09-03T12:21:16.683Z,19.00
2022-09-03T12:24:38.566Z,18.20
2022-09-03T12:28:01.234Z,17.60
2022-09-03T12:31:24.819Z,17.20
2022-09-03T12:34:46.395Z,16.80
2022-09-03T12:38:09.948Z,16.70
2022-09-03T12:41:33.589Z,16.50
2022-09-03T12:44:56.015Z,16.50
2022-09-03T12:48:19.795Z,16.50
2022-09-03T12:51:53.501Z,16.50
2022-09-03T12:55:29.491Z,16.60
2022-09-03T12:58:53.621Z,16.60
2022-09-03T13:02:19.056Z,16.70
2022-09-03T13:05:44.303Z,16.70
2022-09-03T13:09:08.972Z,16.80
2022-09-03T13:12:33.593Z,16.90
2022-09-03T13:16:06.698Z,17.00
2022-09-03T13:19:34.922Z,17.20
2022-09-03T13:23:02.269Z,17.40
2022-09-03T13:26:29.173Z,17.50
2022-09-03T13:29:55.672Z,17.60
2022-09-03T13:33:20.973Z,17.70
2022-09-03T13:36:45.144Z,17.90
2022-09-03T13:40:14.649Z,18.00
2022-09-03T13:43:39.608Z,18.20
2022-09-03T13:47:02.398Z,18.50
2022-09-03T13:50:24.931Z,18.90
2022-09-03T13:53:55.061Z,19.30
2022-09-03T13:57:23.819Z,19.70
2022-09-03T14:00:46.937Z,19.80
2022-09-03T14:04:13.168Z,19.60
2022-09-03T14:07:41.997Z,19.50
2022-09-03T14:11:09.326Z,19.20
2022-09-03T14:14:39.911Z,19.40
2022-09-03T14:18:09.224Z,19.50
2022-09-03T14:21:33.323Z,19.50
2022-09-03T14:24:56.217Z,19.50
2022-09-03T14:28:26.740Z,19.70
2022-09-03T14:32:05.449Z,20.00
2022-09-03T14:35:39.433Z,20.10
2022-09-03T14:39:08.610Z,20.00
2022-09-03T14:42:39.514Z,20.00
2022-09-03T14:46:15.534Z,20.10
2022-09-03T14:49:53.781Z,20.20
2022-09-03T14:53:22.177Z,20.30
2022-09-03T14:56:49.087Z,20.10
2022-09-03T15:00:17.382Z,19.90
2022-09-03T15:03:59.921Z,19.80
2022-09-03T15:07:25.211Z,19.80
2022-09-03T15:10:51.147Z,20.10
2022-09-03T15:14:18.470Z,20.30
2022-09-03T15:17:46.543Z,20.40
2022-09-03T15:21:17.573Z,20.60
2022-09-03T15:24:49.149Z,20.80
2022-09-03T15:28:12.507Z,20.90
2022-09-03T15:31:41.199Z,21.00
2022-09-03T15:35:05.844Z,20.90
2022-09-03T15:38:31.480Z,20.90
2022-09-03T15:41:56.581Z,20.80
2022-09-03T15:45:21.331Z,20.80
2022-09-03T15:48:47.231Z,20.70
2022-09-03T15:52:10.604Z,20.70
2022-09-03T15:55:34.292Z,20.70
2022-09-03T15:59:01.215Z,20.70
2022-09-03T16:02:27.774Z,20.50
2022-09-03T16:05:53.568Z,20.50
2022-09-03T16:09:22.632Z,20.60
2022-09-03T16:12:49.775Z,20.70
2022-09-03T16:16:15.224Z,20.60
2022-09-03T16:19:41.164Z,20.50
2022-09-03T16:23:05.777Z,20.40
2022-09-03T16:26:30.127Z,20.30
2022-09-03T16:29:57.417Z,20.00
2022-09-03T16:33:23.378Z,19.90
2022-09-03T16:36:49.102Z,19.80
2022-09-03T16:40:14.703Z,19.70
2022-09-03T16:43:43.671Z,19.60
2022-09-03T16:47:08.030Z,19.50
2022-09-03T16:50:38.392Z,19.40
2022-09-03T16:54:08.547Z,19.40
2022-09-03T16:57:35.665Z,19.40
2022-09-03T17:01:04.531Z,19.40
2022-09-03T17:04:45.230Z,19.50
2022-09-03T17:08:12.150Z,19.60
2022-09-03T17:11:41.640Z,19.70
2022-09-03T17:15:16.756Z,19.80
2022-09-03T17:18:47.052Z,19.80
2022-09-03T17:22:12.479Z,19.80
2022-09-03T17:25:36.762Z,19.90
2022-09-03T17:29:02.762Z,19.90
2022-09-03T17:32:29.386Z,19.80
2022-09-03T17:35:53.271Z,19.80
2022-09-03T17:39:37.433Z,19.80
2022-09-03T17:43:05.488Z,19.90
2022-09-03T17:46:31.864Z,19.80
2022-09-03T17:49:54.528Z,19.70
2022-09-03T17:53:19.113Z,19.50
2022-09-03T17:56:44.901Z,19.30
2022-09-03T18:00:09.048Z,19.10
2022-09-03T18:03:34.118Z,18.90
2022-09-03T18:06:58.683Z,18.80
2022-09-03T18:10:24.246Z,18.70
2022-09-03T18:13:49.328Z,18.60
2022-09-03T18:17:14.109Z,18.50
2022-09-03T18:20:41.290Z,18.30
2022-09-03T18:24:07.196Z,18.20
2022-09-03T18:27:33.758Z,18.10
2022-09-03T18:30:55.423Z,18.00
2022-09-03T18:34:22.409Z,17.90
2022-09-03T18:37:44.405Z,17.80
2022-09-03T18:41:08.395Z,17.70
2022-09-03T18:44:35.105Z,17.70
2022-09-03T18:48:06.024Z,17.70
2022-09-03T18:51:34.656Z,17.50
2022-09-03T18:55:08.264Z,17.40
2022-09-03T18:58:34.963Z,17.30
2022-09-03T19:01:56.703Z,17.30
2022-09-03T19:05:19.384Z,17.20
2022-09-03T19:08:46.971Z,17.10
2022-09-03T19:12:14.728Z,17.10
2022-09-03T19:15:38.450Z,17.10
2022-09-03T19:19:13.316Z,17.00
2022-09-03T19:22:37.039Z,16.90
2022-09-03T19:26:11.615Z,16.90
2022-09-03T19:29:42.050Z,16.80
2022-09-03T19:33:09.294Z,16.80
2022-09-03T19:36:40.987Z,16.70
2022-09-03T19:40:11.193Z,16.70
2022-09-03T19:43:38.608Z,16.70
2022-09-03T19:47:01.232Z,16.70
2022-09-03T19:50:24.742Z,16.60
2022-09-03T19:53:47.469Z,16.60
2022-09-03T19:57:11.546Z,16.60
2022-09-03T20:00:34.506Z,16.50
2022-09-03T20:03:56.507Z,16.50
2022-09-03T20:07:19.146Z,16.40
2022-09-03T20:10:41.674Z,16.40
2022-09-03T20:14:03.264Z,16.40
2022-09-03T20:17:30.634Z,16.30
2022-09-03T20:20:55.846Z,16.30
2022-09-03T20:24:25.656Z,16.20
2022-09-03T20:27:54.664Z,16.20
2022-09-03T20:31:22.042Z,16.20
2022-09-03T20:34:50.912Z,16.20
2022-09-03T20:38:21.388Z,16.10
2022-09-03T20:41:47.590Z,16.00
2022-09-03T20:45:14.448Z,16.00
2022-09-03T20:48:39.800Z,16.00
2022-09-03T20:52:04.463Z,16.00
2022-09-03T20:55:28.196Z,16.00
2022-09-03T20:58:54.252Z,16.10
2022-09-03T21:02:23.340Z,16.00
2022-09-03T21:05:47.599Z,16.00
2022-09-03T21:09:17.212Z,16.00
2022-09-03T21:12:44.477Z,16.00
2022-09-03T21:16:19.090Z,16.10
2022-09-03T21:19:46.838Z,16.10
2022-09-03T21:23:13.804Z,16.30
2022-09-03T21:26:38.255Z,16.30
2022-09-03T21:30:02.221Z,16.40
2022-09-03T21:33:26.964Z,16.50
2022-09-03T21:36:49.006Z,16.60
2022-09-03T21:40:11.787Z,16.60
2022-09-03T21:43:36.841Z,16.60
2022-09-03T21:46:59.546Z,16.60
2022-09-03T21:50:22.289Z,16.70
2022-09-03T21:53:45.641Z,16.70
2022-09-03T21:57:16.181Z,16.70
2022-09-03T22:00:39.343Z,16.80
2022-09-03T22:04:01.156Z,16.80
2022-09-03T22:07:26.394Z,16.80
2022-09-03T22:10:53.750Z,16.80
2022-09-03T22:14:16.078Z,16.90
2022-09-03T22:17:44.808Z,16.90
2022-09-03T22:21:11.623Z,16.90
2022-09-03T22:24:35.757Z,16.90
2022-09-03T22:27:59.044Z,16.90
2022-09-03T22:31:26.324Z,16.90
2022-09-03T22:35:05.341Z,16.90
2022-09-03T22:38:40.920Z,16.90
2022-09-03T22:42:17.040Z,16.90
2022-09-03T22:45:50.029Z,16.80
2022-09-03T22:49:19.018Z,16.70
2022-09-03T22:52:44.473Z,16.60
2022-09-03T22:56:07.355Z,16.50
2022-09-03T22:59:31.380Z,16.40
2022-09-03T23:02:54.973Z,16.30
2022-09-03T23:06:21.310Z,16.20
2022-09-03T23:09:45.982Z,16.10
2022-09-03T23:13:09.898Z,16.00
2022-09-03T23:16:35.192Z,15.90
2022-09-03T23:19:59.778Z,15.90
2022-09-03T23:23:23.383Z,15.90
2022-09-03T23:26:47.476Z,15.90
2022-09-03T23:30:09.295Z,15.90
2022-09-03T23:33:30.857Z,15.80
2022-09-03T23:37:22.460Z,15.70
2022-09-03T23:40:44.124Z,15.70
2022-09-03T23:44:11.304Z,15.60
2022-09-03T23:47:40.891Z,15.60
2022-09-03T23:51:12.287Z,15.50
2022-09-03T23:54:37.618Z,15.50
2022-09-03T23:58:05.390Z,15.50
